Terminal Aerodrome Forecast
Issued by NWS St Louis, MO

Home | Current Version | Previous Version | Graphics & Text | Print | Product List | Glossary On
Versions: 1 2 3 4 5 6 7 8 9 10 11 12 13 14 15 16 17 18 19 20 21 22 23 24 25 26 27 28 29 30 31
000
FTUS43 KLSX 272300
TAFSTL
TAF
KSTL 272335Z 2800/2906 31008KT 6SM -PLSN OVC015
     FM280100 31006KT P6SM OVC015
     FM280600 31006KT P6SM SCT025
     FM280900 31006KT P6SM SCT035
     FM282300 01004KT P6SM SCT250=

USA.gov is the U.S. government's official web portal to all federal, state and local government web resources and services.